sensor_id;sensor_type;location;lat;lon;timestamp;temperature;humidity
17565;DHT22;62994;52.126;5.596;2022-12-04T00:00:49;1.90;99.90
17565;DHT22;62994;52.126;5.596;2022-12-04T00:03:16;1.90;99.90
17565;DHT22;62994;52.126;5.596;2022-12-04T00:05:47;2.00;99.90
17565;DHT22;62994;52.126;5.596;2022-12-04T00:08:14;1.90;99.90
17565;DHT22;62994;52.126;5.596;2022-12-04T00:10:42;1.90;99.90
17565;DHT22;62994;52.126;5.596;2022-12-04T00:13:09;1.90;99.90
17565;DHT22;62994;52.126;5.596;2022-12-04T00:15:41;1.90;99.90
17565;DHT22;62994;52.126;5.596;2022-12-04T00:18:08;2.00;99.90
17565;DHT22;62994;52.126;5.596;2022-12-04T00:20:38;2.10;99.90
17565;DHT22;62994;52.126;5.596;2022-12-04T00:23:05;2.00;99.90
17565;DHT22;62994;52.126;5.596;2022-12-04T00:25:32;2.10;99.90
17565;DHT22;62994;52.126;5.596;2022-12-04T00:27:59;2.10;99.90
17565;DHT22;62994;52.126;5.596;2022-12-04T00:30:26;2.00;99.90
17565;DHT22;62994;52.126;5.596;2022-12-04T00:32:54;2.00;99.90
17565;DHT22;62994;52.126;5.596;2022-12-04T00:35:21;2.00;99.90
17565;DHT22;62994;52.126;5.596;2022-12-04T00:37:48;2.00;99.90
17565;DHT22;62994;52.126;5.596;2022-12-04T00:40:15;2.00;99.90
17565;DHT22;62994;52.126;5.596;2022-12-04T00:42:43;2.00;99.90
17565;DHT22;62994;52.126;5.596;2022-12-04T00:45:10;2.00;99.90
17565;DHT22;62994;52.126;5.596;2022-12-04T00:47:37;2.00;99.90
17565;DHT22;62994;52.126;5.596;2022-12-04T00:50:07;2.00;99.90
17565;DHT22;62994;52.126;5.596;2022-12-04T00:52:36;2.00;99.90
17565;DHT22;62994;52.126;5.596;2022-12-04T00:55:03;2.00;99.90
17565;DHT22;62994;52.126;5.596;2022-12-04T00:57:30;2.00;99.90
17565;DHT22;62994;52.126;5.596;2022-12-04T00:59:59;2.00;99.90
17565;DHT22;62994;52.126;5.596;2022-12-04T01:02:26;2.00;99.90
17565;DHT22;62994;52.126;5.596;2022-12-04T01:04:56;2.00;99.90
17565;DHT22;62994;52.126;5.596;2022-12-04T01:07:27;2.00;99.90
17565;DHT22;62994;52.126;5.596;2022-12-04T01:09:54;2.00;99.90
17565;DHT22;62994;52.126;5.596;2022-12-04T01:12:21;2.00;99.90
17565;DHT22;62994;52.126;5.596;2022-12-04T01:14:48;2.10;99.90
17565;DHT22;62994;52.126;5.596;2022-12-04T01:17:15;2.00;99.90
17565;DHT22;62994;52.126;5.596;2022-12-04T01:19:44;2.00;99.90
17565;DHT22;62994;52.126;5.596;2022-12-04T01:22:11;2.00;99.90
17565;DHT22;62994;52.126;5.596;2022-12-04T01:24:39;2.00;99.90
17565;DHT22;62994;52.126;5.596;2022-12-04T01:27:07;2.00;99.90
17565;DHT22;62994;52.126;5.596;2022-12-04T01:29:34;2.00;99.90
17565;DHT22;62994;52.126;5.596;2022-12-04T01:32:07;2.00;99.90
17565;DHT22;62994;52.126;5.596;2022-12-04T01:34:34;2.00;99.90
17565;DHT22;62994;52.126;5.596;2022-12-04T01:37:01;2.10;99.90
17565;DHT22;62994;52.126;5.596;2022-12-04T01:39:28;2.10;99.90
17565;DHT22;62994;52.126;5.596;2022-12-04T01:41:57;2.10;99.90
17565;DHT22;62994;52.126;5.596;2022-12-04T01:44:25;2.10;99.90
17565;DHT22;62994;52.126;5.596;2022-12-04T01:46:53;2.10;99.90
17565;DHT22;62994;52.126;5.596;2022-12-04T01:49:28;2.00;99.90
17565;DHT22;62994;52.126;5.596;2022-12-04T01:51:59;2.00;99.90
17565;DHT22;62994;52.126;5.596;2022-12-04T01:54:29;2.10;99.90
17565;DHT22;62994;52.126;5.596;2022-12-04T01:57:02;2.00;99.90
17565;DHT22;62994;52.126;5.596;2022-12-04T01:59:35;2.10;99.90
17565;DHT22;62994;52.126;5.596;2022-12-04T02:02:08;2.20;99.90
17565;DHT22;62994;52.126;5.596;2022-12-04T02:04:36;2.10;99.90
17565;DHT22;62994;52.126;5.596;2022-12-04T02:07:04;2.10;99.90
17565;DHT22;62994;52.126;5.596;2022-12-04T02:09:32;2.10;99.90
17565;DHT22;62994;52.126;5.596;2022-12-04T02:12:06;2.10;99.90
17565;DHT22;62994;52.126;5.596;2022-12-04T02:14:41;2.10;99.90
17565;DHT22;62994;52.126;5.596;2022-12-04T02:17:17;2.10;99.90
17565;DHT22;62994;52.126;5.596;2022-12-04T02:19:56;2.10;99.90
17565;DHT22;62994;52.126;5.596;2022-12-04T02:25:40;2.10;99.90
17565;DHT22;62994;52.126;5.596;2022-12-04T02:28:14;2.10;99.90
17565;DHT22;62994;52.126;5.596;2022-12-04T02:30:43;2.10;99.90
17565;DHT22;62994;52.126;5.596;2022-12-04T02:33:16;2.10;99.90
17565;DHT22;62994;52.126;5.596;2022-12-04T02:35:46;2.10;99.90
17565;DHT22;62994;52.126;5.596;2022-12-04T02:38:20;2.10;99.90
17565;DHT22;62994;52.126;5.596;2022-12-04T02:40:52;2.10;99.90
17565;DHT22;62994;52.126;5.596;2022-12-04T02:43:24;2.10;99.90
17565;DHT22;62994;52.126;5.596;2022-12-04T02:45:57;2.10;99.90
17565;DHT22;62994;52.126;5.596;2022-12-04T02:48:27;2.00;99.90
17565;DHT22;62994;52.126;5.596;2022-12-04T02:50:58;2.00;99.90
17565;DHT22;62994;52.126;5.596;2022-12-04T02:53:29;2.10;99.90
17565;DHT22;62994;52.126;5.596;2022-12-04T02:56:03;2.00;99.90
17565;DHT22;62994;52.126;5.596;2022-12-04T02:58:34;2.00;99.90
17565;DHT22;62994;52.126;5.596;2022-12-04T03:01:07;2.00;99.90
17565;DHT22;62994;52.126;5.596;2022-12-04T03:03:48;2.00;99.90
17565;DHT22;62994;52.126;5.596;2022-12-04T03:06:19;2.00;99.90
17565;DHT22;62994;52.126;5.596;2022-12-04T03:08:51;1.90;99.90
17565;DHT22;62994;52.126;5.596;2022-12-04T03:11:22;2.00;99.90
17565;DHT22;62994;52.126;5.596;2022-12-04T03:13:55;2.00;99.90
17565;DHT22;62994;52.126;5.596;2022-12-04T03:16:25;2.00;99.90
17565;DHT22;62994;52.126;5.596;2022-12-04T03:18:56;2.00;99.90
17565;DHT22;62994;52.126;5.596;2022-12-04T03:21:31;2.10;99.90
17565;DHT22;62994;52.126;5.596;2022-12-04T03:24:03;2.00;99.90
17565;DHT22;62994;52.126;5.596;2022-12-04T03:26:35;2.00;99.90
17565;DHT22;62994;52.126;5.596;2022-12-04T03:29:08;2.10;99.90
17565;DHT22;62994;52.126;5.596;2022-12-04T03:31:41;2.10;99.90
17565;DHT22;62994;52.126;5.596;2022-12-04T03:34:16;2.10;99.90
17565;DHT22;62994;52.126;5.596;2022-12-04T03:36:49;2.10;99.90
17565;DHT22;62994;52.126;5.596;2022-12-04T03:39:20;2.00;99.90
17565;DHT22;62994;52.126;5.596;2022-12-04T03:41:54;2.00;99.90
17565;DHT22;62994;52.126;5.596;2022-12-04T03:44:26;1.90;99.90
17565;DHT22;62994;52.126;5.596;2022-12-04T03:46:56;2.00;99.90
17565;DHT22;62994;52.126;5.596;2022-12-04T03:49:32;2.00;99.90
17565;DHT22;62994;52.126;5.596;2022-12-04T03:52:06;2.10;99.90
17565;DHT22;62994;52.126;5.596;2022-12-04T03:54:41;2.10;99.90
17565;DHT22;62994;52.126;5.596;2022-12-04T03:57:15;2.10;99.90
17565;DHT22;62994;52.126;5.596;2022-12-04T03:59:48;2.10;99.90
17565;DHT22;62994;52.126;5.596;2022-12-04T04:02:19;2.00;99.90
17565;DHT22;62994;52.126;5.596;2022-12-04T04:04:52;2.00;99.90
17565;DHT22;62994;52.126;5.596;2022-12-04T04:07:23;2.10;99.90
17565;DHT22;62994;52.126;5.596;2022-12-04T04:09:55;2.10;99.90
17565;DHT22;62994;52.126;5.596;2022-12-04T04:12:29;2.10;99.90
17565;DHT22;62994;52.126;5.596;2022-12-04T04:15:02;2.00;99.90
17565;DHT22;62994;52.126;5.596;2022-12-04T04:17:49;2.00;99.90
17565;DHT22;62994;52.126;5.596;2022-12-04T04:20:37;2.00;99.90
17565;DHT22;62994;52.126;5.596;2022-12-04T04:23:37;2.00;99.90
17565;DHT22;62994;52.126;5.596;2022-12-04T04:26:24;2.00;99.90
17565;DHT22;62994;52.126;5.596;2022-12-04T04:28:52;2.00;99.90
17565;DHT22;62994;52.126;5.596;2022-12-04T04:31:28;2.00;99.90
17565;DHT22;62994;52.126;5.596;2022-12-04T04:34:11;2.00;99.90
17565;DHT22;62994;52.126;5.596;2022-12-04T04:36:48;2.10;99.90
17565;DHT22;62994;52.126;5.596;2022-12-04T04:39:30;2.10;99.90
17565;DHT22;62994;52.126;5.596;2022-12-04T04:42:03;2.10;99.90
17565;DHT22;62994;52.126;5.596;2022-12-04T04:44:38;2.10;99.90
17565;DHT22;62994;52.126;5.596;2022-12-04T04:47:20;2.10;99.90
17565;DHT22;62994;52.126;5.596;2022-12-04T04:49:53;2.10;99.90
17565;DHT22;62994;52.126;5.596;2022-12-04T04:52:22;2.10;99.90
17565;DHT22;62994;52.126;5.596;2022-12-04T04:54:49;2.10;99.90
17565;DHT22;62994;52.126;5.596;2022-12-04T04:57:25;2.10;99.90
17565;DHT22;62994;52.126;5.596;2022-12-04T04:59:52;2.10;99.90
17565;DHT22;62994;52.126;5.596;2022-12-04T05:02:21;2.10;99.90
17565;DHT22;62994;52.126;5.596;2022-12-04T05:04:48;2.10;99.90
17565;DHT22;62994;52.126;5.596;2022-12-04T05:07:15;2.10;99.90
17565;DHT22;62994;52.126;5.596;2022-12-04T05:09:42;2.10;99.90
17565;DHT22;62994;52.126;5.596;2022-12-04T05:12:09;2.10;99.90
17565;DHT22;62994;52.126;5.596;2022-12-04T05:14:41;2.20;99.90
17565;DHT22;62994;52.126;5.596;2022-12-04T05:17:08;2.20;99.90
17565;DHT22;62994;52.126;5.596;2022-12-04T05:19:36;2.20;99.90
17565;DHT22;62994;52.126;5.596;2022-12-04T05:22:23;2.20;99.90
17565;DHT22;62994;52.126;5.596;2022-12-04T05:24:50;2.20;99.90
17565;DHT22;62994;52.126;5.596;2022-12-04T05:27:17;2.20;99.90
17565;DHT22;62994;52.126;5.596;2022-12-04T05:29:44;2.20;99.90
17565;DHT22;62994;52.126;5.596;2022-12-04T05:32:11;2.20;99.90
17565;DHT22;62994;52.126;5.596;2022-12-04T05:34:40;2.20;99.90
17565;DHT22;62994;52.126;5.596;2022-12-04T05:37:06;2.20;99.90
17565;DHT22;62994;52.126;5.596;2022-12-04T05:39:33;2.20;99.90
17565;DHT22;62994;52.126;5.596;2022-12-04T05:42:01;2.10;99.90
17565;DHT22;62994;52.126;5.596;2022-12-04T05:44:28;2.20;99.90
17565;DHT22;62994;52.126;5.596;2022-12-04T05:46:55;2.20;99.90
17565;DHT22;62994;52.126;5.596;2022-12-04T05:49:22;2.20;99.90
17565;DHT22;62994;52.126;5.596;2022-12-04T05:51:51;2.20;99.90
17565;DHT22;62994;52.126;5.596;2022-12-04T05:54:18;2.20;99.90
17565;DHT22;62994;52.126;5.596;2022-12-04T05:56:50;2.20;99.90
17565;DHT22;62994;52.126;5.596;2022-12-04T05:59:17;2.20;99.90
17565;DHT22;62994;52.126;5.596;2022-12-04T06:01:44;2.20;99.90
17565;DHT22;62994;52.126;5.596;2022-12-04T06:04:11;2.20;99.90
17565;DHT22;62994;52.126;5.596;2022-12-04T06:06:38;2.20;99.90
17565;DHT22;62994;52.126;5.596;2022-12-04T06:09:12;2.20;99.90
17565;DHT22;62994;52.126;5.596;2022-12-04T06:11:39;2.30;99.90
17565;DHT22;62994;52.126;5.596;2022-12-04T06:14:09;2.30;99.90
17565;DHT22;62994;52.126;5.596;2022-12-04T06:16:38;2.20;99.90
17565;DHT22;62994;52.126;5.596;2022-12-04T06:19:07;2.30;99.90
17565;DHT22;62994;52.126;5.596;2022-12-04T06:21:37;2.30;99.90
17565;DHT22;62994;52.126;5.596;2022-12-04T06:24:05;2.30;99.90
17565;DHT22;62994;52.126;5.596;2022-12-04T06:26:36;2.30;99.90
17565;DHT22;62994;52.126;5.596;2022-12-04T06:29:03;2.30;99.90
17565;DHT22;62994;52.126;5.596;2022-12-04T06:31:30;2.30;99.90
17565;DHT22;62994;52.126;5.596;2022-12-04T06:33:58;2.20;99.90
17565;DHT22;62994;52.126;5.596;2022-12-04T06:36:25;2.30;99.90
17565;DHT22;62994;52.126;5.596;2022-12-04T06:38:54;2.20;99.90
17565;DHT22;62994;52.126;5.596;2022-12-04T06:41:23;2.30;99.90
17565;DHT22;62994;52.126;5.596;2022-12-04T06:43:56;2.30;99.90
17565;DHT22;62994;52.126;5.596;2022-12-04T06:46:25;2.20;99.90
17565;DHT22;62994;52.126;5.596;2022-12-04T06:48:55;2.30;99.90
17565;DHT22;62994;52.126;5.596;2022-12-04T06:51:24;2.30;99.90
17565;DHT22;62994;52.126;5.596;2022-12-04T06:53:52;2.30;99.90
17565;DHT22;62994;52.126;5.596;2022-12-04T06:56:24;2.20;99.90
17565;DHT22;62994;52.126;5.596;2022-12-04T06:58:54;2.20;99.90
17565;DHT22;62994;52.126;5.596;2022-12-04T07:01:24;2.30;99.90
17565;DHT22;62994;52.126;5.596;2022-12-04T07:03:53;2.30;99.90
17565;DHT22;62994;52.126;5.596;2022-12-04T07:06:22;2.30;99.90
17565;DHT22;62994;52.126;5.596;2022-12-04T07:08:51;2.30;99.90
17565;DHT22;62994;52.126;5.596;2022-12-04T07:11:20;2.20;99.90
17565;DHT22;62994;52.126;5.596;2022-12-04T07:13:55;2.10;99.90
17565;DHT22;62994;52.126;5.596;2022-12-04T07:16:23;2.20;99.90
17565;DHT22;62994;52.126;5.596;2022-12-04T07:18:51;2.20;99.90
17565;DHT22;62994;52.126;5.596;2022-12-04T07:21:20;2.30;99.90
17565;DHT22;62994;52.126;5.596;2022-12-04T07:23:48;2.20;99.90
17565;DHT22;62994;52.126;5.596;2022-12-04T07:26:19;2.30;99.90
17565;DHT22;62994;52.126;5.596;2022-12-04T07:28:46;2.20;99.90
17565;DHT22;62994;52.126;5.596;2022-12-04T07:31:19;2.20;99.90
17565;DHT22;62994;52.126;5.596;2022-12-04T07:33:53;2.20;99.90
17565;DHT22;62994;52.126;5.596;2022-12-04T07:36:28;2.20;99.90
17565;DHT22;62994;52.126;5.596;2022-12-04T07:38:55;2.30;99.90
17565;DHT22;62994;52.126;5.596;2022-12-04T07:41:23;2.30;99.90
17565;DHT22;62994;52.126;5.596;2022-12-04T07:44:00;2.30;99.90
17565;DHT22;62994;52.126;5.596;2022-12-04T07:46:31;2.30;99.90
17565;DHT22;62994;52.126;5.596;2022-12-04T07:49:01;2.30;99.90
17565;DHT22;62994;52.126;5.596;2022-12-04T07:51:29;2.30;99.90
17565;DHT22;62994;52.126;5.596;2022-12-04T07:53:56;2.30;99.90
17565;DHT22;62994;52.126;5.596;2022-12-04T07:56:49;2.20;99.90
17565;DHT22;62994;52.126;5.596;2022-12-04T07:59:16;2.20;99.90
17565;DHT22;62994;52.126;5.596;2022-12-04T08:01:50;2.20;99.90
17565;DHT22;62994;52.126;5.596;2022-12-04T08:04:17;2.20;99.90
17565;DHT22;62994;52.126;5.596;2022-12-04T08:06:44;2.20;99.90
17565;DHT22;62994;52.126;5.596;2022-12-04T08:09:11;2.10;99.90
17565;DHT22;62994;52.126;5.596;2022-12-04T08:11:43;2.10;99.90
17565;DHT22;62994;52.126;5.596;2022-12-04T08:14:11;2.20;99.90
17565;DHT22;62994;52.126;5.596;2022-12-04T08:16:41;2.20;99.90
17565;DHT22;62994;52.126;5.596;2022-12-04T08:19:10;2.20;99.90
17565;DHT22;62994;52.126;5.596;2022-12-04T08:21:36;2.10;99.90
17565;DHT22;62994;52.126;5.596;2022-12-04T08:24:08;2.20;99.90
17565;DHT22;62994;52.126;5.596;2022-12-04T08:26:41;2.20;99.90
17565;DHT22;62994;52.126;5.596;2022-12-04T08:29:08;2.20;99.90
17565;DHT22;62994;52.126;5.596;2022-12-04T08:31:35;2.20;99.90
17565;DHT22;62994;52.126;5.596;2022-12-04T08:34:18;2.30;99.90
17565;DHT22;62994;52.126;5.596;2022-12-04T08:36:45;2.30;99.90
17565;DHT22;62994;52.126;5.596;2022-12-04T08:39:12;2.20;99.90
17565;DHT22;62994;52.126;5.596;2022-12-04T08:41:39;2.30;99.90
17565;DHT22;62994;52.126;5.596;2022-12-04T08:44:06;2.20;99.90
17565;DHT22;62994;52.126;5.596;2022-12-04T08:46:33;2.20;99.90
17565;DHT22;62994;52.126;5.596;2022-12-04T08:49:00;2.20;99.90
17565;DHT22;62994;52.126;5.596;2022-12-04T08:51:30;2.20;99.90
17565;DHT22;62994;52.126;5.596;2022-12-04T08:54:00;2.20;99.90
17565;DHT22;62994;52.126;5.596;2022-12-04T08:56:28;2.20;99.90
17565;DHT22;62994;52.126;5.596;2022-12-04T08:58:56;2.10;99.90
17565;DHT22;62994;52.126;5.596;2022-12-04T09:01:24;2.00;99.90
17565;DHT22;62994;52.126;5.596;2022-12-04T09:03:58;2.00;99.90
17565;DHT22;62994;52.126;5.596;2022-12-04T09:06:25;2.00;99.90
17565;DHT22;62994;52.126;5.596;2022-12-04T09:08:57;2.00;99.90
17565;DHT22;62994;52.126;5.596;2022-12-04T09:11:26;2.00;99.90
17565;DHT22;62994;52.126;5.596;2022-12-04T09:14:02;2.00;99.90
17565;DHT22;62994;52.126;5.596;2022-12-04T09:16:30;2.00;99.90
17565;DHT22;62994;52.126;5.596;2022-12-04T09:19:01;2.00;99.90
17565;DHT22;62994;52.126;5.596;2022-12-04T09:21:29;2.10;99.90
17565;DHT22;62994;52.126;5.596;2022-12-04T09:23:58;2.10;99.90
17565;DHT22;62994;52.126;5.596;2022-12-04T09:26:27;2.10;99.90
17565;DHT22;62994;52.126;5.596;2022-12-04T09:29:01;2.10;99.90
17565;DHT22;62994;52.126;5.596;2022-12-04T09:31:29;2.10;99.90
17565;DHT22;62994;52.126;5.596;2022-12-04T09:34:01;2.10;99.90
17565;DHT22;62994;52.126;5.596;2022-12-04T09:36:28;2.10;99.90
17565;DHT22;62994;52.126;5.596;2022-12-04T09:38:55;2.20;99.90
17565;DHT22;62994;52.126;5.596;2022-12-04T09:44:28;2.20;99.90
17565;DHT22;62994;52.126;5.596;2022-12-04T09:47:00;2.20;99.90
17565;DHT22;62994;52.126;5.596;2022-12-04T09:49:32;2.20;99.90
17565;DHT22;62994;52.126;5.596;2022-12-04T09:52:02;2.20;99.90
17565;DHT22;62994;52.126;5.596;2022-12-04T09:54:39;2.30;99.90
17565;DHT22;62994;52.126;5.596;2022-12-04T09:57:14;2.30;99.90
17565;DHT22;62994;52.126;5.596;2022-12-04T09:59:44;2.30;99.90
17565;DHT22;62994;52.126;5.596;2022-12-04T10:02:26;2.30;99.90
17565;DHT22;62994;52.126;5.596;2022-12-04T10:05:02;2.30;99.90
17565;DHT22;62994;52.126;5.596;2022-12-04T10:07:32;2.30;99.90
17565;DHT22;62994;52.126;5.596;2022-12-04T10:10:04;2.40;99.90
17565;DHT22;62994;52.126;5.596;2022-12-04T10:12:49;2.30;99.90
17565;DHT22;62994;52.126;5.596;2022-12-04T10:15:35;2.20;99.90
17565;DHT22;62994;52.126;5.596;2022-12-04T10:18:19;2.20;99.90
17565;DHT22;62994;52.126;5.596;2022-12-04T10:21:00;2.20;99.90
17565;DHT22;62994;52.126;5.596;2022-12-04T10:23:41;2.20;99.90
17565;DHT22;62994;52.126;5.596;2022-12-04T10:26:16;2.20;99.90
17565;DHT22;62994;52.126;5.596;2022-12-04T10:28:47;2.20;99.90
17565;DHT22;62994;52.126;5.596;2022-12-04T10:31:19;2.20;99.90
17565;DHT22;62994;52.126;5.596;2022-12-04T10:33:52;2.20;99.90
17565;DHT22;62994;52.126;5.596;2022-12-04T10:36:23;2.20;99.90
17565;DHT22;62994;52.126;5.596;2022-12-04T10:39:00;2.20;99.90
17565;DHT22;62994;52.126;5.596;2022-12-04T10:41:39;2.20;99.90
17565;DHT22;62994;52.126;5.596;2022-12-04T10:44:12;2.20;99.90
17565;DHT22;62994;52.126;5.596;2022-12-04T10:46:41;2.20;99.90
17565;DHT22;62994;52.126;5.596;2022-12-04T10:49:16;2.20;99.90
17565;DHT22;62994;52.126;5.596;2022-12-04T10:51:44;2.30;99.90
17565;DHT22;62994;52.126;5.596;2022-12-04T10:54:29;2.20;99.90
17565;DHT22;62994;52.126;5.596;2022-12-04T10:57:07;2.30;99.90
17565;DHT22;62994;52.126;5.596;2022-12-04T10:59:38;2.30;99.90
17565;DHT22;62994;52.126;5.596;2022-12-04T11:02:18;2.20;99.90
17565;DHT22;62994;52.126;5.596;2022-12-04T11:05:02;2.30;99.90
17565;DHT22;62994;52.126;5.596;2022-12-04T11:07:43;2.30;99.90
17565;DHT22;62994;52.126;5.596;2022-12-04T11:10:20;2.30;99.90
17565;DHT22;62994;52.126;5.596;2022-12-04T11:12:52;2.30;99.90
17565;DHT22;62994;52.126;5.596;2022-12-04T11:15:25;2.30;99.90
17565;DHT22;62994;52.126;5.596;2022-12-04T11:18:05;2.30;99.90
17565;DHT22;62994;52.126;5.596;2022-12-04T11:20:32;2.30;99.90
17565;DHT22;62994;52.126;5.596;2022-12-04T11:23:04;2.30;99.90
17565;DHT22;62994;52.126;5.596;2022-12-04T11:25:36;2.30;99.90
17565;DHT22;62994;52.126;5.596;2022-12-04T11:28:04;2.30;99.90
17565;DHT22;62994;52.126;5.596;2022-12-04T11:30:33;2.30;99.90
17565;DHT22;62994;52.126;5.596;2022-12-04T11:33:05;2.30;99.90
17565;DHT22;62994;52.126;5.596;2022-12-04T11:35:35;2.30;99.90
17565;DHT22;62994;52.126;5.596;2022-12-04T11:38:06;2.30;99.90
17565;DHT22;62994;52.126;5.596;2022-12-04T11:40:37;2.30;99.90
17565;DHT22;62994;52.126;5.596;2022-12-04T11:43:15;2.30;99.90
17565;DHT22;62994;52.126;5.596;2022-12-04T11:45:59;2.40;99.90
17565;DHT22;62994;52.126;5.596;2022-12-04T11:48:41;2.40;99.90
17565;DHT22;62994;52.126;5.596;2022-12-04T11:51:16;2.30;99.90
17565;DHT22;62994;52.126;5.596;2022-12-04T11:53:55;2.30;99.90
17565;DHT22;62994;52.126;5.596;2022-12-04T11:56:34;2.40;99.90
17565;DHT22;62994;52.126;5.596;2022-12-04T12:02:21;2.40;99.90
17565;DHT22;62994;52.126;5.596;2022-12-04T12:05:07;2.40;99.90
17565;DHT22;62994;52.126;5.596;2022-12-04T12:07:44;2.50;99.90
17565;DHT22;62994;52.126;5.596;2022-12-04T12:10:18;2.50;99.90
17565;DHT22;62994;52.126;5.596;2022-12-04T12:12:55;2.50;99.90
17565;DHT22;62994;52.126;5.596;2022-12-04T12:15:33;2.50;99.90
17565;DHT22;62994;52.126;5.596;2022-12-04T12:18:16;2.50;99.90
17565;DHT22;62994;52.126;5.596;2022-12-04T12:20:56;2.50;99.90
17565;DHT22;62994;52.126;5.596;2022-12-04T12:23:38;2.50;99.90
17565;DHT22;62994;52.126;5.596;2022-12-04T12:26:15;2.50;99.90
17565;DHT22;62994;52.126;5.596;2022-12-04T12:29:05;2.50;99.90
17565;DHT22;62994;52.126;5.596;2022-12-04T12:31:51;2.50;99.90
17565;DHT22;62994;52.126;5.596;2022-12-04T12:34:34;2.60;99.90
17565;DHT22;62994;52.126;5.596;2022-12-04T12:37:12;2.60;99.90
17565;DHT22;62994;52.126;5.596;2022-12-04T12:39:44;2.70;99.90
17565;DHT22;62994;52.126;5.596;2022-12-04T12:42:22;2.60;99.90
17565;DHT22;62994;52.126;5.596;2022-12-04T12:44:57;2.60;99.90
17565;DHT22;62994;52.126;5.596;2022-12-04T12:47:29;2.60;99.90
17565;DHT22;62994;52.126;5.596;2022-12-04T12:50:14;2.60;99.90
17565;DHT22;62994;52.126;5.596;2022-12-04T12:52:55;2.60;99.90
17565;DHT22;62994;52.126;5.596;2022-12-04T12:55:26;2.60;99.90
17565;DHT22;62994;52.126;5.596;2022-12-04T12:57:59;2.70;99.90
17565;DHT22;62994;52.126;5.596;2022-12-04T13:00:29;2.70;99.90
17565;DHT22;62994;52.126;5.596;2022-12-04T13:03:05;2.80;99.90
17565;DHT22;62994;52.126;5.596;2022-12-04T13:05:42;2.70;99.90
17565;DHT22;62994;52.126;5.596;2022-12-04T13:08:16;2.70;99.90
17565;DHT22;62994;52.126;5.596;2022-12-04T13:11:00;2.80;99.90
17565;DHT22;62994;52.126;5.596;2022-12-04T13:13:30;2.70;99.90
17565;DHT22;62994;52.126;5.596;2022-12-04T13:16:03;2.70;99.90
17565;DHT22;62994;52.126;5.596;2022-12-04T13:18:37;2.70;99.90
17565;DHT22;62994;52.126;5.596;2022-12-04T13:21:28;2.70;99.90
17565;DHT22;62994;52.126;5.596;2022-12-04T13:27:00;2.70;99.90
17565;DHT22;62994;52.126;5.596;2022-12-04T13:29:43;2.70;99.90
17565;DHT22;62994;52.126;5.596;2022-12-04T13:32:37;2.60;99.90
17565;DHT22;62994;52.126;5.596;2022-12-04T13:35:13;2.70;99.90
17565;DHT22;62994;52.126;5.596;2022-12-04T13:38:08;2.70;99.90
17565;DHT22;62994;52.126;5.596;2022-12-04T13:40:40;2.70;99.90
17565;DHT22;62994;52.126;5.596;2022-12-04T13:43:26;2.70;99.90
17565;DHT22;62994;52.126;5.596;2022-12-04T13:45:56;2.70;99.90
17565;DHT22;62994;52.126;5.596;2022-12-04T13:48:36;2.70;99.90
17565;DHT22;62994;52.126;5.596;2022-12-04T13:51:38;2.70;99.90
17565;DHT22;62994;52.126;5.596;2022-12-04T13:54:24;2.70;99.90
17565;DHT22;62994;52.126;5.596;2022-12-04T13:56:54;2.70;99.90
17565;DHT22;62994;52.126;5.596;2022-12-04T13:59:39;2.70;99.90
17565;DHT22;62994;52.126;5.596;2022-12-04T14:02:28;2.70;99.90
17565;DHT22;62994;52.126;5.596;2022-12-04T14:05:00;2.70;99.90
17565;DHT22;62994;52.126;5.596;2022-12-04T14:07:30;2.70;99.90
17565;DHT22;62994;52.126;5.596;2022-12-04T14:10:00;2.70;99.90
17565;DHT22;62994;52.126;5.596;2022-12-04T14:12:32;2.70;99.90
17565;DHT22;62994;52.126;5.596;2022-12-04T14:15:05;2.70;99.90
17565;DHT22;62994;52.126;5.596;2022-12-04T14:17:34;2.70;99.90
17565;DHT22;62994;52.126;5.596;2022-12-04T14:20:20;2.70;99.90
17565;DHT22;62994;52.126;5.596;2022-12-04T14:22:53;2.70;99.90
17565;DHT22;62994;52.126;5.596;2022-12-04T14:25:30;2.80;99.90
17565;DHT22;62994;52.126;5.596;2022-12-04T14:28:24;2.80;99.90
17565;DHT22;62994;52.126;5.596;2022-12-04T14:31:05;2.70;99.90
17565;DHT22;62994;52.126;5.596;2022-12-04T14:33:41;2.70;99.90
17565;DHT22;62994;52.126;5.596;2022-12-04T14:36:19;2.70;99.90
17565;DHT22;62994;52.126;5.596;2022-12-04T14:39:02;2.70;99.90
17565;DHT22;62994;52.126;5.596;2022-12-04T14:41:35;2.70;99.90
17565;DHT22;62994;52.126;5.596;2022-12-04T14:44:21;2.70;99.90
17565;DHT22;62994;52.126;5.596;2022-12-04T14:47:04;2.70;99.90
17565;DHT22;62994;52.126;5.596;2022-12-04T14:49:49;2.60;99.90
17565;DHT22;62994;52.126;5.596;2022-12-04T14:52:26;2.60;99.90
17565;DHT22;62994;52.126;5.596;2022-12-04T14:55:02;2.60;99.90
17565;DHT22;62994;52.126;5.596;2022-12-04T14:57:45;2.60;99.90
17565;DHT22;62994;52.126;5.596;2022-12-04T15:00:50;2.60;99.90
17565;DHT22;62994;52.126;5.596;2022-12-04T15:03:21;2.70;99.90
17565;DHT22;62994;52.126;5.596;2022-12-04T15:06:17;2.70;99.90
17565;DHT22;62994;52.126;5.596;2022-12-04T15:08:52;2.60;99.90
17565;DHT22;62994;52.126;5.596;2022-12-04T15:11:57;2.60;99.90
17565;DHT22;62994;52.126;5.596;2022-12-04T15:14:44;2.60;99.90
17565;DHT22;62994;52.126;5.596;2022-12-04T15:17:17;2.60;99.90
17565;DHT22;62994;52.126;5.596;2022-12-04T15:19:44;2.70;99.90
17565;DHT22;62994;52.126;5.596;2022-12-04T15:22:20;2.70;99.90
17565;DHT22;62994;52.126;5.596;2022-12-04T15:24:48;2.70;99.90
17565;DHT22;62994;52.126;5.596;2022-12-04T15:27:17;2.80;99.90
17565;DHT22;62994;52.126;5.596;2022-12-04T15:29:45;2.80;99.90
17565;DHT22;62994;52.126;5.596;2022-12-04T15:32:16;2.90;99.90
17565;DHT22;62994;52.126;5.596;2022-12-04T15:34:50;2.90;99.90
17565;DHT22;62994;52.126;5.596;2022-12-04T15:37:20;2.90;99.90
17565;DHT22;62994;52.126;5.596;2022-12-04T15:39:50;2.90;99.90
17565;DHT22;62994;52.126;5.596;2022-12-04T15:42:24;2.90;99.90
17565;DHT22;62994;52.126;5.596;2022-12-04T15:45:19;3.00;99.90
17565;DHT22;62994;52.126;5.596;2022-12-04T15:47:54;3.00;99.90
17565;DHT22;62994;52.126;5.596;2022-12-04T15:50:26;3.00;99.90
17565;DHT22;62994;52.126;5.596;2022-12-04T15:52:58;2.90;99.90
17565;DHT22;62994;52.126;5.596;2022-12-04T15:55:35;2.90;99.90
17565;DHT22;62994;52.126;5.596;2022-12-04T15:58:14;2.90;99.90
17565;DHT22;62994;52.126;5.596;2022-12-04T16:00:42;2.90;99.90
17565;DHT22;62994;52.126;5.596;2022-12-04T16:03:22;2.90;99.90
17565;DHT22;62994;52.126;5.596;2022-12-04T16:06:01;2.90;99.90
17565;DHT22;62994;52.126;5.596;2022-12-04T16:08:36;2.90;99.90
17565;DHT22;62994;52.126;5.596;2022-12-04T16:11:23;2.90;99.90
17565;DHT22;62994;52.126;5.596;2022-12-04T16:14:13;2.90;99.90
17565;DHT22;62994;52.126;5.596;2022-12-04T16:16:47;2.90;99.90
17565;DHT22;62994;52.126;5.596;2022-12-04T16:19:24;2.90;99.90
17565;DHT22;62994;52.126;5.596;2022-12-04T16:21:58;3.00;99.90
17565;DHT22;62994;52.126;5.596;2022-12-04T16:24:26;3.00;99.90
17565;DHT22;62994;52.126;5.596;2022-12-04T16:26:55;3.00;99.90
17565;DHT22;62994;52.126;5.596;2022-12-04T16:29:29;3.00;99.90
17565;DHT22;62994;52.126;5.596;2022-12-04T16:31:56;3.00;99.90
17565;DHT22;62994;52.126;5.596;2022-12-04T16:34:29;3.00;99.90